Hubbell, Indiana
Current Conditions -  °F | °C
As of 7:53 AM on Wednesday 22 Oct 2014 (Local Time) from KBMG Reporting Station
Clear Clear  
Wind Chill: 34°   Ceiling: Unl
Heat Index: 39°   Visibility: 10mi
Dew Point: 36°   Wind: 7mph
Humidity: 89%   Direction: 40°NE
Pressure: 30.28"   Gusts: NA
Location:  39.2488°N, 86.9879°W
Report Text: KBMG 221153Z 04006KT 10SM CLR 04/02 A3028 RMK AO2 SLP256 T00390022 10061 20011 53009 $
Loading
Personal Weather Stations






























Interactive Weather Map
Tropical Storm Tracking
New forecast layout! Learn more

10-Day Weather Forecast

Advertisements
Track Severe Weather on mobile